EBFN

Koksijde Air Base Airport

Koksijde, Belgium
METAR EBFN 180025Z AUTO 03003KT 9000 SCT017/// 11/09 Q1023 WHT
Observed Flight Rules
Oct-18 @ 00:25 UTC (26 minutes ago) Visual Flight Rules
Wind Visibility Clouds
30° at 3 knots 8,996 meters
  • Scattered at 1,700' AGL
Temperatures Readings
Current 11°C / 52°F
Dewpoint 9°C / 48°F
Humidity 88%
Altimeter 30.21" Hg
Pressure 1023 hPa
Elevation 9
METAR EBFN 180025Z AUTO 03003KT 9000 SCT017/// 11/09 Q1023 WHT
Observed Flight Rules
Oct-18 @ 00:25 UTC
(26 minutes ago)
VFR
Wind Visibility
30° at 3 knots 8,996 meters
Clouds
  • Scattered at 1,700' AGL
Temperature Dewpoint
11°C / 52°F 9°C / 48°F
Humidity Altimeter Pressure
88% 30.21" Hg 1023 hPa